OKBO2: North Canadian River at Britton Rd at OKC, OK

                                SHEF ID:       OKBO2     North Canadian River at Britton
STATION TYPE:

STAGE RIV-FLOW WTR-TEMP DIS-OXY CONDUCT BAT-LOAD
ft cfs F mg/l umho/cm volt
Ccp-Rev Ccp-Rev Ccp-Rev Ccp-Rev Ccp-Rev Ccp-Rev
(America/Chicago)
08/27 00:00 4.50 16 83.97 6.97 839 11.99
08/27 01:00 4.50 16 83.25 6.02 855 11.98
08/27 02:00 4.51 16 82.69 4.81 866 11.98
08/27 03:00 4.51 16 81.77 4.78 871 11.97
08/27 04:00 4.51 16 80.92 4.47 874 11.96
08/27 05:00 4.51 16 80.13 4.33 878 11.94
08/27 06:00 4.51 16 79.36 4.16 889 11.94
08/27 07:00 4.52 17 79.02 3.46 894 11.94
08/27 08:00 4.53 18 78.28 4.26 894 12.04
08/27 09:00 4.53 18 78.49 5.56 898 12.85
08/27 10:00 4.53 18 79.68 7.11 894 12.93
08/27 11:00 4.51 16 81.27 8.78 885 12.94
08/27 12:00 4.48 15 83.37 10.70 881 12.67
08/27 13:00 4.51 16 85.78 12.34 869 12.44
08/27 14:00 4.47 14 87.80 13.95 848 12.34
08/27 15:00 4.50 16 88.59 14.62 839 12.39
08/27 16:00 4.50 16 88.79 15.47 676 12.40
08/27 17:00 4.49 15 89.76 16.95 665 12.47
08/27 18:00 4.49 15 90.12 16.89 806 12.35
08/27 19:00 4.49 15 89.31 15.74 789 12.34
08/27 20:00 4.49 15 88.23 13.03 757 12.22
08/27 21:00 4.49 15 87.21 10.83 802 12.05
08/27 22:00 4.48 15 86.41 9.26 799 12.02
08/27 23:00 4.49 15 85.14 7.75 809 12.00
Data processed at Fri 28Aug2026 04:25 GMT

NOTICE: If you are parsing this page

Please convert to using our Data API. Starting early 2026 we will be migrating to: https://water.usace.army.mil with modern pages rendered in JavaScript. When this migration completes you will no longer be able to scrape this page! CWMSDataAPI (CDA)

Timeseries IDs (TSIDs)

TSIDs used from left to right in the data table
OKC3.Stage.Inst.1Hour.0.Ccp-Rev
OKC3.Flow.Inst.1Hour.0.Ccp-Rev
OKC3.Temp-Water.Inst.1Hour.0.Ccp-Rev
OKC3.Conc-DO.Inst.1Hour.0.Ccp-Rev
OKC3.Cond-Water.Inst.1Hour.0.Ccp-Rev
OKC3.Volt-Battery Load.Inst.1Hour.0.Ccp-Rev

                            

All information presented herein is the property of the government of the United States of America and may be revised or deleted at any time without prior notice. Dissemination of this information without the expressed written consent of the Public Affairs Office, Tulsa District U.S. Army Corps of Engineers is strictly prohibited. These data are gathered electronically and, as presented, have NOT undergone any form of quality control. These data are NOT guaranteed to be valid or correct.